sensor_id;sensor_type;location;lat;lon;timestamp;pressure;altitude;pressure_sealevel;temperature;humidity
20027;BME280;10174;42.688;23.344;2023-09-07T00:00:35;95793.31;;;19.68;88.86
20027;BME280;10174;42.688;23.344;2023-09-07T00:03:01;95801.13;;;19.84;87.75
20027;BME280;10174;42.688;23.344;2023-09-07T00:05:26;95801.44;;;19.82;87.75
20027;BME280;10174;42.688;23.344;2023-09-07T00:07:51;95763.44;;;19.63;89.04
20027;BME280;10174;42.688;23.344;2023-09-07T00:10:17;95806.38;;;19.80;88.94
20027;BME280;10174;42.688;23.344;2023-09-07T00:12:43;95773.09;;;19.69;89.14
20027;BME280;10174;42.688;23.344;2023-09-07T00:15:09;95801.13;;;19.84;88.48
20027;BME280;10174;42.688;23.344;2023-09-07T00:17:36;95779.84;;;19.72;88.15
20027;BME280;10174;42.688;23.344;2023-09-07T00:20:02;95772.88;;;19.80;89.02
20027;BME280;10174;42.688;23.344;2023-09-07T00:22:34;95781.44;;;19.87;88.49
20027;BME280;10174;42.688;23.344;2023-09-07T00:25:00;95789.09;;;19.85;87.88
20027;BME280;10174;42.688;23.344;2023-09-07T00:27:25;95785.56;;;19.84;86.74
20027;BME280;10174;42.688;23.344;2023-09-07T00:29:51;95788.47;;;19.88;86.30
20027;BME280;10174;42.688;23.344;2023-09-07T00:32:16;95795.69;;;19.84;87.60
20027;BME280;10174;42.688;23.344;2023-09-07T00:34:41;95776.72;;;19.79;87.98
20027;BME280;10174;42.688;23.344;2023-09-07T00:37:07;95782.53;;;19.86;87.31
20027;BME280;10174;42.688;23.344;2023-09-07T00:39:32;95781.53;;;19.82;87.76
20027;BME280;10174;42.688;23.344;2023-09-07T00:41:57;95805.03;;;19.91;87.65
20027;BME280;10174;42.688;23.344;2023-09-07T00:44:23;95782.84;;;19.84;87.50
20027;BME280;10174;42.688;23.344;2023-09-07T00:46:48;95777.22;;;19.81;87.74
20027;BME280;10174;42.688;23.344;2023-09-07T00:49:14;95792.69;;;19.94;86.34
20027;BME280;10174;42.688;23.344;2023-09-07T00:51:39;95798.66;;;19.96;86.04
20027;BME280;10174;42.688;23.344;2023-09-07T00:54:05;95774.72;;;19.93;85.12
20027;BME280;10174;42.688;23.344;2023-09-07T00:56:31;95774.66;;;19.84;86.16
20027;BME280;10174;42.688;23.344;2023-09-07T00:58:57;95789.34;;;19.97;85.91
20027;BME280;10174;42.688;23.344;2023-09-07T01:01:25;95779.41;;;20.01;85.66
20027;BME280;10174;42.688;23.344;2023-09-07T01:03:53;95782.78;;;19.98;86.18
20027;BME280;10174;42.688;23.344;2023-09-07T01:06:31;95770.88;;;19.94;85.54
20027;BME280;10174;42.688;23.344;2023-09-07T01:09:00;95773.44;;;19.90;85.80
20027;BME280;10174;42.688;23.344;2023-09-07T01:11:36;95783.88;;;19.97;85.78
20027;BME280;10174;42.688;23.344;2023-09-07T01:14:02;95779.06;;;19.94;86.31
20027;BME280;10174;42.688;23.344;2023-09-07T01:16:29;95737.97;;;19.68;86.54
20027;BME280;10174;42.688;23.344;2023-09-07T01:18:56;95773.28;;;19.96;86.26
20027;BME280;10174;42.688;23.344;2023-09-07T01:21:22;95770.22;;;19.88;86.38
20027;BME280;10174;42.688;23.344;2023-09-07T01:23:48;95776.84;;;19.96;86.68
20027;BME280;10174;42.688;23.344;2023-09-07T01:26:14;95775.22;;;19.95;85.78
20027;BME280;10174;42.688;23.344;2023-09-07T01:28:39;95770.22;;;19.88;86.28
20027;BME280;10174;42.688;23.344;2023-09-07T01:31:05;95790.88;;;19.89;87.16
20027;BME280;10174;42.688;23.344;2023-09-07T01:33:31;95769.94;;;19.76;87.59
20027;BME280;10174;42.688;23.344;2023-09-07T01:35:57;95783.53;;;19.90;87.09
20027;BME280;10174;42.688;23.344;2023-09-07T01:38:22;95777.09;;;19.86;87.30
20027;BME280;10174;42.688;23.344;2023-09-07T01:40:47;95767.16;;;19.67;87.68
20027;BME280;10174;42.688;23.344;2023-09-07T01:49:42;95787.84;;;19.68;89.67
20027;BME280;10174;42.688;23.344;2023-09-07T01:55:53;95791.50;;;19.64;90.30
20027;BME280;10174;42.688;23.344;2023-09-07T02:02:09;95792.31;;;19.64;90.23
20027;BME280;10174;42.688;23.344;2023-09-07T02:05:07;95791.31;;;19.60;90.88
20027;BME280;10174;42.688;23.344;2023-09-07T02:08:07;95798.00;;;19.54;90.95
20027;BME280;10174;42.688;23.344;2023-09-07T02:14:17;95792.78;;;19.44;91.61
20027;BME280;10174;42.688;23.344;2023-09-07T02:17:15;95795.00;;;19.42;91.95
20027;BME280;10174;42.688;23.344;2023-09-07T02:20:18;95796.19;;;19.49;91.04
20027;BME280;10174;42.688;23.344;2023-09-07T02:22:45;95791.53;;;19.50;90.93
20027;BME280;10174;42.688;23.344;2023-09-07T02:25:13;95770.53;;;19.28;91.78
20027;BME280;10174;42.688;23.344;2023-09-07T02:27:38;95796.13;;;19.40;92.39
20027;BME280;10174;42.688;23.344;2023-09-07T02:30:05;95795.81;;;19.42;91.72
20027;BME280;10174;42.688;23.344;2023-09-07T02:32:31;95773.88;;;19.25;92.43
20027;BME280;10174;42.688;23.344;2023-09-07T02:34:57;95794.13;;;19.32;92.19
20027;BME280;10174;42.688;23.344;2023-09-07T02:37:22;95787.38;;;19.30;92.27
20027;BME280;10174;42.688;23.344;2023-09-07T02:39:48;95779.94;;;19.21;92.15
20027;BME280;10174;42.688;23.344;2023-09-07T02:42:13;95793.22;;;19.37;92.14
20027;BME280;10174;42.688;23.344;2023-09-07T02:45:05;95784.97;;;19.28;92.52
20027;BME280;10174;42.688;23.344;2023-09-07T02:47:36;95801.47;;;19.46;92.56
20027;BME280;10174;42.688;23.344;2023-09-07T02:53:24;95703.41;;;18.73;93.29
20027;BME280;10174;42.688;23.344;2023-09-07T02:55:49;95795.84;;;19.28;93.74
20027;BME280;10174;42.688;23.344;2023-09-07T02:58:15;95803.19;;;19.42;92.32
20027;BME280;10174;42.688;23.344;2023-09-07T03:00:48;95799.44;;;19.37;93.01
20027;BME280;10174;42.688;23.344;2023-09-07T03:03:24;95761.00;;;19.02;93.29
20027;BME280;10174;42.688;23.344;2023-09-07T03:05:49;95809.16;;;19.30;93.60
20027;BME280;10174;42.688;23.344;2023-09-07T03:08:15;95771.81;;;19.08;94.13
20027;BME280;10174;42.688;23.344;2023-09-07T03:10:40;95793.88;;;19.20;95.39
20027;BME280;10174;42.688;23.344;2023-09-07T03:13:07;95775.50;;;19.12;95.92
20027;BME280;10174;42.688;23.344;2023-09-07T03:15:33;95783.06;;;19.15;96.21
20027;BME280;10174;42.688;23.344;2023-09-07T03:17:59;95768.38;;;19.02;96.72
20027;BME280;10174;42.688;23.344;2023-09-07T03:20:34;95804.75;;;19.20;96.89
20027;BME280;10174;42.688;23.344;2023-09-07T03:22:59;95780.19;;;18.97;98.83
20027;BME280;10174;42.688;23.344;2023-09-07T03:25:24;95809.31;;;19.11;99.13
20027;BME280;10174;42.688;23.344;2023-09-07T03:27:50;95795.91;;;19.00;100.00
20027;BME280;10174;42.688;23.344;2023-09-07T03:30:16;95792.69;;;18.98;100.00
20027;BME280;10174;42.688;23.344;2023-09-07T03:32:41;95709.25;;;18.52;99.17
20027;BME280;10174;42.688;23.344;2023-09-07T03:35:09;95811.03;;;19.07;100.00
20027;BME280;10174;42.688;23.344;2023-09-07T03:37:36;95804.19;;;18.95;100.00
20027;BME280;10174;42.688;23.344;2023-09-07T03:40:03;95810.63;;;18.99;100.00
20027;BME280;10174;42.688;23.344;2023-09-07T03:42:30;95799.53;;;18.82;100.00
20027;BME280;10174;42.688;23.344;2023-09-07T03:44:55;95788.66;;;18.68;100.00
20027;BME280;10174;42.688;23.344;2023-09-07T03:47:21;95810.91;;;18.84;100.00
20027;BME280;10174;42.688;23.344;2023-09-07T03:50:20;95816.97;;;18.81;100.00
20027;BME280;10174;42.688;23.344;2023-09-07T03:52:45;95830.09;;;18.79;100.00
20027;BME280;10174;42.688;23.344;2023-09-07T03:55:11;95761.25;;;18.37;100.00
20027;BME280;10174;42.688;23.344;2023-09-07T03:57:36;95814.47;;;18.71;100.00
20027;BME280;10174;42.688;23.344;2023-09-07T04:00:44;95832.81;;;18.79;100.00
20027;BME280;10174;42.688;23.344;2023-09-07T04:03:10;95824.34;;;18.66;100.00
20027;BME280;10174;42.688;23.344;2023-09-07T04:05:38;95839.50;;;18.86;100.00
20027;BME280;10174;42.688;23.344;2023-09-07T04:08:07;95835.41;;;18.84;100.00
20027;BME280;10174;42.688;23.344;2023-09-07T04:10:33;95732.78;;;18.20;100.00
20027;BME280;10174;42.688;23.344;2023-09-07T04:12:58;95839.50;;;18.86;100.00
20027;BME280;10174;42.688;23.344;2023-09-07T04:15:39;95825.13;;;18.81;100.00
20027;BME280;10174;42.688;23.344;2023-09-07T04:18:10;95760.97;;;18.38;100.00
20027;BME280;10174;42.688;23.344;2023-09-07T04:20:43;95840.19;;;18.92;100.00
20027;BME280;10174;42.688;23.344;2023-09-07T04:23:12;95791.28;;;18.59;100.00
20027;BME280;10174;42.688;23.344;2023-09-07T04:25:37;95840.50;;;18.91;100.00
20027;BME280;10174;42.688;23.344;2023-09-07T04:28:05;95781.63;;;18.53;100.00
20027;BME280;10174;42.688;23.344;2023-09-07T04:30:30;95822.94;;;18.83;100.00
20027;BME280;10174;42.688;23.344;2023-09-07T04:32:56;95788.88;;;18.58;100.00
20027;BME280;10174;42.688;23.344;2023-09-07T04:35:26;95735.09;;;18.27;100.00
20027;BME280;10174;42.688;23.344;2023-09-07T04:37:51;95835.84;;;18.91;100.00
20027;BME280;10174;42.688;23.344;2023-09-07T04:40:19;95839.38;;;18.92;100.00
20027;BME280;10174;42.688;23.344;2023-09-07T04:42:45;95830.81;;;18.84;100.00
20027;BME280;10174;42.688;23.344;2023-09-07T04:45:10;95852.06;;;18.96;100.00
20027;BME280;10174;42.688;23.344;2023-09-07T04:47:36;95841.31;;;18.91;100.00
20027;BME280;10174;42.688;23.344;2023-09-07T04:50:02;95839.69;;;18.90;100.00
20027;BME280;10174;42.688;23.344;2023-09-07T04:52:35;95824.16;;;18.77;100.00
20027;BME280;10174;42.688;23.344;2023-09-07T04:58:20;95858.84;;;18.99;100.00
20027;BME280;10174;42.688;23.344;2023-09-07T05:00:46;95846.94;;;18.95;99.80
20027;BME280;10174;42.688;23.344;2023-09-07T05:03:11;95854.38;;;19.17;98.96
20027;BME280;10174;42.688;23.344;2023-09-07T05:05:50;95855.59;;;19.11;99.50
20027;BME280;10174;42.688;23.344;2023-09-07T05:08:16;95856.81;;;19.04;99.76
20027;BME280;10174;42.688;23.344;2023-09-07T05:10:47;95839.06;;;18.93;100.00
20027;BME280;10174;42.688;23.344;2023-09-07T05:13:12;95860.25;;;18.96;100.00
20027;BME280;10174;42.688;23.344;2023-09-07T05:15:47;95845.03;;;18.95;100.00
20027;BME280;10174;42.688;23.344;2023-09-07T05:18:13;95860.47;;;19.00;100.00
20027;BME280;10174;42.688;23.344;2023-09-07T05:20:39;95755.44;;;18.29;100.00
20027;BME280;10174;42.688;23.344;2023-09-07T05:23:16;95857.81;;;18.95;100.00
20027;BME280;10174;42.688;23.344;2023-09-07T05:28:49;95866.88;;;19.04;100.00
20027;BME280;10174;42.688;23.344;2023-09-07T05:31:38;95865.78;;;19.05;100.00
20027;BME280;10174;42.688;23.344;2023-09-07T05:34:09;95850.25;;;19.05;99.31
20027;BME280;10174;42.688;23.344;2023-09-07T05:36:34;95807.22;;;18.80;98.28
20027;BME280;10174;42.688;23.344;2023-09-07T05:39:00;95865.06;;;19.13;98.15
20027;BME280;10174;42.688;23.344;2023-09-07T05:41:27;95755.13;;;18.45;97.59
20027;BME280;10174;42.688;23.344;2023-09-07T05:43:53;95831.44;;;18.95;98.32
20027;BME280;10174;42.688;23.344;2023-09-07T05:46:18;95856.78;;;19.32;96.94
20027;BME280;10174;42.688;23.344;2023-09-07T05:48:44;95868.69;;;19.36;96.83
20027;BME280;10174;42.688;23.344;2023-09-07T19:09:20;95797.00;;;20.89;72.41
20027;BME280;10174;42.688;23.344;2023-09-07T19:11:45;95776.44;;;20.83;72.79
20027;BME280;10174;42.688;23.344;2023-09-07T19:14:11;95797.31;;;20.96;72.81
20027;BME280;10174;42.688;23.344;2023-09-07T19:16:36;95804.75;;;21.05;72.91
20027;BME280;10174;42.688;23.344;2023-09-07T19:19:01;95798.44;;;21.04;73.06
20027;BME280;10174;42.688;23.344;2023-09-07T19:21:27;95731.19;;;20.59;72.14
20027;BME280;10174;42.688;23.344;2023-09-07T19:23:54;95797.50;;;21.00;73.06
20027;BME280;10174;42.688;23.344;2023-09-07T19:26:37;95784.63;;;20.92;73.61
20027;BME280;10174;42.688;23.344;2023-09-07T19:29:05;95810.00;;;21.01;73.68
20027;BME280;10174;42.688;23.344;2023-09-07T19:31:31;95804.56;;;21.01;72.64
20027;BME280;10174;42.688;23.344;2023-09-07T19:33:57;95785.59;;;20.96;72.46
20027;BME280;10174;42.688;23.344;2023-09-07T19:36:23;95814.84;;;21.04;72.12
20027;BME280;10174;42.688;23.344;2023-09-07T19:38:52;95780.63;;;20.89;72.63
20027;BME280;10174;42.688;23.344;2023-09-07T19:41:17;95695.03;;;20.36;73.12
20027;BME280;10174;42.688;23.344;2023-09-07T19:43:43;95735.72;;;20.64;73.16
20027;BME280;10174;42.688;23.344;2023-09-07T19:46:09;95790.41;;;20.99;73.85
20027;BME280;10174;42.688;23.344;2023-09-07T19:48:35;95765.50;;;20.83;73.64
20027;BME280;10174;42.688;23.344;2023-09-07T19:51:07;95737.19;;;20.70;73.36
20027;BME280;10174;42.688;23.344;2023-09-07T19:53:33;95792.03;;;21.00;73.24
20027;BME280;10174;42.688;23.344;2023-09-07T19:56:17;95719.47;;;20.50;72.84
20027;BME280;10174;42.688;23.344;2023-09-07T19:58:43;95811.28;;;20.95;72.59
20027;BME280;10174;42.688;23.344;2023-09-07T20:01:15;95801.19;;;21.04;72.39
20027;BME280;10174;42.688;23.344;2023-09-07T20:03:42;95796.53;;;20.96;72.92
20027;BME280;10174;42.688;23.344;2023-09-07T20:06:08;95779.16;;;20.92;73.90
20027;BME280;10174;42.688;23.344;2023-09-07T20:08:34;95787.03;;;20.93;74.35
20027;BME280;10174;42.688;23.344;2023-09-07T20:10:59;95774.00;;;20.90;73.56
20027;BME280;10174;42.688;23.344;2023-09-07T20:13:24;95775.78;;;20.86;72.60
20027;BME280;10174;42.688;23.344;2023-09-07T20:15:50;95798.78;;;20.94;72.59
20027;BME280;10174;42.688;23.344;2023-09-07T20:18:15;95793.94;;;20.91;73.55
20027;BME280;10174;42.688;23.344;2023-09-07T20:20:41;95766.13;;;20.89;72.28
20027;BME280;10174;42.688;23.344;2023-09-07T20:23:06;95797.50;;;21.00;73.05
20027;BME280;10174;42.688;23.344;2023-09-07T20:25:33;95693.59;;;20.39;72.78
20027;BME280;10174;42.688;23.344;2023-09-07T20:27:58;95779.47;;;20.81;73.76
20027;BME280;10174;42.688;23.344;2023-09-07T20:30:24;95795.53;;;20.92;73.98
20027;BME280;10174;42.688;23.344;2023-09-07T20:32:49;95767.41;;;20.82;73.44
20027;BME280;10174;42.688;23.344;2023-09-07T20:35:15;95800.22;;;21.00;73.31
20027;BME280;10174;42.688;23.344;2023-09-07T20:37:40;95785.44;;;20.92;72.56
20027;BME280;10174;42.688;23.344;2023-09-07T20:40:06;95746.28;;;20.57;73.08
20027;BME280;10174;42.688;23.344;2023-09-07T20:42:32;95791.34;;;20.86;73.00
20027;BME280;10174;42.688;23.344;2023-09-07T20:44:58;95783.78;;;20.74;72.99
20027;BME280;10174;42.688;23.344;2023-09-07T20:47:23;95783.94;;;20.77;73.18
20027;BME280;10174;42.688;23.344;2023-09-07T20:49:49;95787.34;;;20.83;72.87
20027;BME280;10174;42.688;23.344;2023-09-07T20:52:14;95689.03;;;20.17;72.62
20027;BME280;10174;42.688;23.344;2023-09-07T20:54:40;95779.59;;;20.68;73.60
20027;BME280;10174;42.688;23.344;2023-09-07T20:57:06;95786.00;;;20.72;73.66
20027;BME280;10174;42.688;23.344;2023-09-07T20:59:32;95774.47;;;20.66;72.92
20027;BME280;10174;42.688;23.344;2023-09-07T21:01:57;95696.09;;;20.18;73.24
20027;BME280;10174;42.688;23.344;2023-09-07T21:04:22;95767.66;;;20.63;73.64
20027;BME280;10174;42.688;23.344;2023-09-07T21:06:48;95781.63;;;20.62;73.51
20027;BME280;10174;42.688;23.344;2023-09-07T21:09:13;95784.22;;;20.67;73.22
20027;BME280;10174;42.688;23.344;2023-09-07T21:11:43;95774.88;;;20.59;73.23
20027;BME280;10174;42.688;23.344;2023-09-07T21:14:08;95771.97;;;20.56;73.62
20027;BME280;10174;42.688;23.344;2023-09-07T21:16:34;95768.09;;;20.48;73.62
20027;BME280;10174;42.688;23.344;2023-09-07T21:18:59;95776.44;;;20.52;73.77
20027;BME280;10174;42.688;23.344;2023-09-07T21:21:25;95771.78;;;20.43;74.69
20027;BME280;10174;42.688;23.344;2023-09-07T21:23:51;95758.25;;;20.38;73.95
20027;BME280;10174;42.688;23.344;2023-09-07T21:26:16;95781.44;;;20.50;73.60
20027;BME280;10174;42.688;23.344;2023-09-07T21:28:41;95792.19;;;20.55;73.11
20027;BME280;10174;42.688;23.344;2023-09-07T21:31:07;95705.63;;;19.98;73.11
20027;BME280;10174;42.688;23.344;2023-09-07T21:33:33;95798.09;;;20.48;72.85
20027;BME280;10174;42.688;23.344;2023-09-07T21:35:59;95777.53;;;20.42;72.90
20027;BME280;10174;42.688;23.344;2023-09-07T21:38:24;95753.22;;;20.23;73.28
20027;BME280;10174;42.688;23.344;2023-09-07T21:40:50;95789.88;;;20.39;74.52
20027;BME280;10174;42.688;23.344;2023-09-07T21:43:16;95805.00;;;20.45;73.41
20027;BME280;10174;42.688;23.344;2023-09-07T21:45:41;95757.72;;;20.27;73.24
20027;BME280;10174;42.688;23.344;2023-09-07T21:48:07;95788.25;;;20.38;73.23
20027;BME280;10174;42.688;23.344;2023-09-07T21:50:32;95786.16;;;20.35;74.08
20027;BME280;10174;42.688;23.344;2023-09-07T21:52:57;95801.78;;;20.43;73.93
20027;BME280;10174;42.688;23.344;2023-09-07T21:55:23;95781.22;;;20.37;74.06
20027;BME280;10174;42.688;23.344;2023-09-07T21:57:48;95776.81;;;20.27;73.06
20027;BME280;10174;42.688;23.344;2023-09-07T22:00:14;95798.09;;;20.48;72.53
20027;BME280;10174;42.688;23.344;2023-09-07T22:02:42;95794.91;;;20.55;69.82
20027;BME280;10174;42.688;23.344;2023-09-07T22:05:09;95804.47;;;20.66;68.72
20027;BME280;10174;42.688;23.344;2023-09-07T22:07:34;95716.16;;;20.22;64.17
20027;BME280;10174;42.688;23.344;2023-09-07T22:10:00;95805.63;;;20.82;62.91
20027;BME280;10174;42.688;23.344;2023-09-07T22:28:17;95799.81;;;21.68;59.40
20027;BME280;10174;42.688;23.344;2023-09-07T22:30:43;95788.91;;;21.50;60.08
20027;BME280;10174;42.688;23.344;2023-09-07T22:33:09;95807.03;;;21.46;59.66
20027;BME280;10174;42.688;23.344;2023-09-07T22:35:34;95783.03;;;21.08;61.68
20027;BME280;10174;42.688;23.344;2023-09-07T22:38:00;95749.25;;;20.69;61.57
20027;BME280;10174;42.688;23.344;2023-09-07T22:40:27;95793.31;;;20.94;61.26
20027;BME280;10174;42.688;23.344;2023-09-07T22:42:52;95801.03;;;21.00;61.71
20027;BME280;10174;42.688;23.344;2023-09-07T22:45:18;95807.28;;;20.92;62.44
20027;BME280;10174;42.688;23.344;2023-09-07T22:47:43;95802.31;;;21.03;61.10
20027;BME280;10174;42.688;23.344;2023-09-07T22:50:09;95809.19;;;20.83;63.60
20027;BME280;10174;42.688;23.344;2023-09-07T22:52:35;95805.63;;;20.74;63.96
20027;BME280;10174;42.688;23.344;2023-09-07T22:55:05;95766.13;;;20.40;64.15
20027;BME280;10174;42.688;23.344;2023-09-07T22:57:32;95824.22;;;20.72;64.25
20027;BME280;10174;42.688;23.344;2023-09-07T22:59:58;95805.72;;;20.60;65.07
20027;BME280;10174;42.688;23.344;2023-09-07T23:02:43;95805.00;;;20.45;65.94
20027;BME280;10174;42.688;23.344;2023-09-07T23:05:08;95819.34;;;20.60;65.68
20027;BME280;10174;42.688;23.344;2023-09-07T23:07:33;95821.91;;;20.56;66.73
20027;BME280;10174;42.688;23.344;2023-09-07T23:09:59;95832.63;;;20.53;67.31
20027;BME280;10174;42.688;23.344;2023-09-07T23:12:27;95818.41;;;20.33;68.85
20027;BME280;10174;42.688;23.344;2023-09-07T23:14:53;95801.34;;;20.19;69.93
20027;BME280;10174;42.688;23.344;2023-09-07T23:17:19;95837.38;;;20.38;69.78
20027;BME280;10174;42.688;23.344;2023-09-07T23:19:45;95823.09;;;20.33;70.04
20027;BME280;10174;42.688;23.344;2023-09-07T23:22:10;95783.47;;;20.04;71.05
20027;BME280;10174;42.688;23.344;2023-09-07T23:24:35;95830.28;;;20.28;72.51
20027;BME280;10174;42.688;23.344;2023-09-07T23:27:01;95829.97;;;20.30;71.63
20027;BME280;10174;42.688;23.344;2023-09-07T23:29:27;95830.09;;;20.25;72.12
20027;BME280;10174;42.688;23.344;2023-09-07T23:31:53;95821.22;;;20.19;72.60
20027;BME280;10174;42.688;23.344;2023-09-07T23:34:18;95848.38;;;20.24;73.17
20027;BME280;10174;42.688;23.344;2023-09-07T23:36:44;95830.03;;;20.16;73.77
20027;BME280;10174;42.688;23.344;2023-09-07T23:39:09;95818.34;;;20.16;74.27
20027;BME280;10174;42.688;23.344;2023-09-07T23:41:34;95822.53;;;20.22;74.38
20027;BME280;10174;42.688;23.344;2023-09-07T23:44:00;95785.13;;;19.91;75.35
20027;BME280;10174;42.688;23.344;2023-09-07T23:46:25;95834.69;;;20.16;75.87
20027;BME280;10174;42.688;23.344;2023-09-07T23:48:50;95827.84;;;20.27;75.12
20027;BME280;10174;42.688;23.344;2023-09-07T23:51:16;95809.28;;;20.06;76.47
20027;BME280;10174;42.688;23.344;2023-09-07T23:53:42;95823.41;;;20.08;77.38
20027;BME280;10174;42.688;23.344;2023-09-07T23:56:08;95843.50;;;20.13;77.98
20027;BME280;10174;42.688;23.344;2023-09-07T23:58:33;95842.00;;;20.06;78.27
